createdAt,value
2023-05-11T00:00:49.741Z,11.64
2023-05-11T00:01:49.754Z,11.65
2023-05-11T00:02:49.808Z,11.64
2023-05-11T00:03:49.777Z,11.62
2023-05-11T00:04:49.717Z,11.64
2023-05-11T00:05:49.682Z,11.64
2023-05-11T00:06:49.677Z,11.62
2023-05-11T00:07:49.692Z,11.62
2023-05-11T00:08:49.651Z,11.62
2023-05-11T00:09:49.633Z,11.62
2023-05-11T00:10:49.656Z,11.62
2023-05-11T00:11:49.617Z,11.61
2023-05-11T00:12:49.648Z,11.61
2023-05-11T00:13:49.621Z,11.61
2023-05-11T00:14:49.590Z,11.59
2023-05-11T00:15:49.606Z,11.61
2023-05-11T00:16:49.574Z,11.59
2023-05-11T00:17:49.608Z,11.62
2023-05-11T00:18:49.630Z,11.62
2023-05-11T00:19:49.532Z,11.64
2023-05-11T00:20:49.528Z,11.61
2023-05-11T00:21:49.531Z,11.62
2023-05-11T00:22:49.500Z,11.61
2023-05-11T00:23:49.495Z,11.59
2023-05-11T00:24:49.488Z,11.61
2023-05-11T00:25:49.482Z,11.59
2023-05-11T00:26:49.492Z,11.59
2023-05-11T00:27:49.438Z,11.61
2023-05-11T00:28:49.458Z,11.57
2023-05-11T00:29:56.188Z,11.57
2023-05-11T00:30:49.496Z,11.59
2023-05-11T00:31:49.455Z,11.57
2023-05-11T00:32:49.484Z,11.56
2023-05-11T00:33:49.402Z,11.56
2023-05-11T00:34:49.402Z,11.57
2023-05-11T00:35:49.422Z,11.57
2023-05-11T00:36:49.362Z,11.57
2023-05-11T00:37:49.351Z,11.57
2023-05-11T00:38:49.358Z,11.57
2023-05-11T00:39:49.333Z,11.59
2023-05-11T00:40:49.362Z,11.56
2023-05-11T00:41:49.398Z,11.59
2023-05-11T00:42:49.378Z,11.59
2023-05-11T00:43:49.291Z,11.59
2023-05-11T00:44:49.312Z,11.59
2023-05-11T00:45:49.300Z,11.59
2023-05-11T00:46:49.332Z,11.59
2023-05-11T00:47:49.282Z,11.59
2023-05-11T00:48:49.242Z,11.61
2023-05-11T00:49:49.242Z,11.59
2023-05-11T00:50:49.213Z,11.57
2023-05-11T00:51:49.201Z,11.59
2023-05-11T00:52:49.211Z,11.57
2023-05-11T00:53:49.200Z,11.57
2023-05-11T00:54:49.198Z,11.56
2023-05-11T00:55:49.151Z,11.56
2023-05-11T00:56:49.139Z,11.54
2023-05-11T00:57:49.145Z,11.52
2023-05-11T00:58:49.186Z,11.52
2023-05-11T00:59:49.126Z,11.53
2023-05-11T01:00:49.119Z,11.54
2023-05-11T01:01:49.112Z,11.52
2023-05-11T01:02:49.183Z,11.53
2023-05-11T01:03:49.106Z,11.52
2023-05-11T01:04:49.069Z,11.52
2023-05-11T01:05:49.041Z,11.53
2023-05-11T01:06:49.052Z,11.54
2023-05-11T01:07:49.027Z,11.54
2023-05-11T01:08:49.076Z,11.54
2023-05-11T01:09:49.029Z,11.53
2023-05-11T01:10:48.998Z,11.50
2023-05-11T01:11:48.988Z,11.50
2023-05-11T01:12:49.016Z,11.50
2023-05-11T01:13:48.981Z,11.50
2023-05-11T01:14:48.952Z,11.46
2023-05-11T01:15:48.951Z,11.46
2023-05-11T01:16:49.085Z,11.46
2023-05-11T01:17:49.009Z,11.46
2023-05-11T01:18:48.972Z,11.44
2023-05-11T01:19:48.903Z,11.44
2023-05-11T01:20:48.894Z,11.43
2023-05-11T01:21:48.895Z,11.41
2023-05-11T01:22:48.942Z,11.39
2023-05-11T01:23:48.872Z,11.43
2023-05-11T01:24:48.895Z,11.43
2023-05-11T01:25:48.829Z,11.44
2023-05-11T01:26:48.854Z,11.46
2023-05-11T01:27:48.829Z,11.47
2023-05-11T01:28:48.816Z,11.47
2023-05-11T01:29:48.790Z,11.47
2023-05-11T01:30:48.812Z,11.49
2023-05-11T01:31:48.845Z,11.49
2023-05-11T01:32:48.794Z,11.47
2023-05-11T01:33:48.781Z,11.46
2023-05-11T01:34:48.774Z,11.44
2023-05-11T01:35:48.765Z,11.46
2023-05-11T01:36:48.760Z,11.44
2023-05-11T01:37:48.700Z,11.44
2023-05-11T01:38:48.736Z,11.43
2023-05-11T01:39:48.725Z,11.43
2023-05-11T01:40:48.705Z,11.41
2023-05-11T01:41:48.659Z,11.43
2023-05-11T01:42:48.656Z,11.44
2023-05-11T01:43:48.643Z,11.44
2023-05-11T01:44:48.637Z,11.44
2023-05-11T01:45:51.230Z,11.44
2023-05-11T01:46:48.619Z,11.46
2023-05-11T01:47:48.620Z,11.46
2023-05-11T01:48:48.600Z,11.46
2023-05-11T01:49:48.602Z,11.46
2023-05-11T01:50:48.568Z,11.47
2023-05-11T01:51:48.571Z,11.49
2023-05-11T01:52:48.572Z,11.50
2023-05-11T01:53:48.561Z,11.49
2023-05-11T01:54:48.570Z,11.50
2023-05-11T01:55:48.514Z,11.52
2023-05-11T01:56:48.522Z,11.50
2023-05-11T01:57:48.496Z,11.52
2023-05-11T01:58:48.503Z,11.50
2023-05-11T01:59:48.524Z,11.52
2023-05-11T02:00:48.476Z,11.49
2023-05-11T02:01:48.491Z,11.50
2023-05-11T02:02:48.495Z,11.52
2023-05-11T02:03:48.496Z,11.50
2023-05-11T02:04:48.468Z,11.52
2023-05-11T02:05:48.400Z,11.53
2023-05-11T02:06:48.411Z,11.52
2023-05-11T02:07:48.402Z,11.53
2023-05-11T02:08:48.421Z,11.53
2023-05-11T02:09:48.358Z,11.52
2023-05-11T02:10:48.370Z,11.53
2023-05-11T02:11:48.327Z,11.53
2023-05-11T02:12:48.338Z,11.52
2023-05-11T02:13:48.361Z,11.53
2023-05-11T02:14:48.309Z,11.53
2023-05-11T02:15:48.336Z,11.53
2023-05-11T02:16:48.304Z,11.53
2023-05-11T02:17:48.325Z,11.53
2023-05-11T02:18:48.342Z,11.53
2023-05-11T02:19:48.250Z,11.54
2023-05-11T02:20:48.322Z,11.56
2023-05-11T02:21:48.235Z,11.54
2023-05-11T02:22:48.254Z,11.54
2023-05-11T02:23:48.226Z,11.57
2023-05-11T02:24:48.192Z,11.56
2023-05-11T02:25:48.201Z,11.56
2023-05-11T02:26:48.184Z,11.56
2023-05-11T02:27:48.213Z,11.59
2023-05-11T02:28:48.176Z,11.59
2023-05-11T02:29:48.150Z,11.57
2023-05-11T02:30:48.133Z,11.57
2023-05-11T02:31:48.280Z,11.56
2023-05-11T02:32:48.152Z,11.56
2023-05-11T02:33:49.555Z,11.53
2023-05-11T02:34:48.095Z,11.54
2023-05-11T02:35:48.108Z,11.53
2023-05-11T02:36:48.082Z,11.53
2023-05-11T02:37:48.091Z,11.52
2023-05-11T02:38:48.068Z,11.53
2023-05-11T02:39:48.062Z,11.53
2023-05-11T02:40:48.022Z,11.50
2023-05-11T02:41:48.084Z,11.53
2023-05-11T02:42:48.004Z,11.53
2023-05-11T02:43:48.022Z,11.52
2023-05-11T02:44:47.987Z,11.54
2023-05-11T02:45:48.042Z,11.54
2023-05-11T02:46:48.035Z,11.53
2023-05-11T02:47:48.012Z,11.54
2023-05-11T02:48:47.950Z,11.54
2023-05-11T02:49:47.946Z,11.54
2023-05-11T02:50:47.924Z,11.56
2023-05-11T02:51:47.954Z,11.56
2023-05-11T02:52:47.890Z,11.56
2023-05-11T02:53:47.902Z,11.53
2023-05-11T02:54:47.870Z,11.54
2023-05-11T02:55:47.920Z,11.57
2023-05-11T02:56:47.861Z,11.57
2023-05-11T02:57:47.983Z,11.54
2023-05-11T02:58:47.844Z,11.56
2023-05-11T02:59:47.914Z,11.57
2023-05-11T03:00:47.943Z,11.54
2023-05-11T03:01:47.995Z,11.56
2023-05-11T03:02:47.850Z,11.57
2023-05-11T03:03:47.912Z,11.56
2023-05-11T03:04:47.799Z,11.57
2023-05-11T03:05:47.707Z,11.59
2023-05-11T03:06:47.716Z,11.59
2023-05-11T03:07:47.694Z,11.57
2023-05-11T03:08:47.678Z,11.56
2023-05-11T03:09:47.719Z,11.57
2023-05-11T03:10:47.658Z,11.57
2023-05-11T03:11:47.665Z,11.57
2023-05-11T03:12:47.642Z,11.59
2023-05-11T03:13:47.674Z,11.57
2023-05-11T03:14:47.632Z,11.59
2023-05-11T03:15:47.608Z,11.57
2023-05-11T03:16:47.695Z,11.59
2023-05-11T03:17:47.633Z,11.61
2023-05-11T03:18:47.629Z,11.59
2023-05-11T03:19:47.571Z,11.59
2023-05-11T03:20:47.577Z,11.61
2023-05-11T03:21:47.553Z,11.62
2023-05-11T03:22:47.541Z,11.65
2023-05-11T03:23:47.557Z,11.64
2023-05-11T03:24:47.549Z,11.65
2023-05-11T03:25:47.568Z,11.65
2023-05-11T03:26:47.490Z,11.67
2023-05-11T03:27:47.485Z,11.68
2023-05-11T03:28:47.483Z,11.67
2023-05-11T03:29:47.497Z,11.68
2023-05-11T03:30:47.461Z,11.68
2023-05-11T03:31:49.619Z,11.72
2023-05-11T03:32:47.577Z,11.72
2023-05-11T03:33:47.454Z,11.74
2023-05-11T03:34:47.415Z,11.74
2023-05-11T03:35:47.413Z,11.72
2023-05-11T03:36:47.388Z,11.75
2023-05-11T03:37:47.415Z,11.75
2023-05-11T03:38:47.371Z,11.77
2023-05-11T03:39:47.355Z,11.78
2023-05-11T03:40:47.335Z,11.77
2023-05-11T03:41:47.339Z,11.80
2023-05-11T03:42:47.360Z,11.78
2023-05-11T03:43:48.091Z,11.82
2023-05-11T03:44:47.308Z,11.82
2023-05-11T03:45:47.399Z,11.82
2023-05-11T03:46:47.357Z,11.82
2023-05-11T03:47:47.351Z,11.85
2023-05-11T03:48:47.267Z,11.83
2023-05-11T03:49:47.266Z,11.86
2023-05-11T03:50:47.232Z,11.86
2023-05-11T03:51:47.292Z,11.87
2023-05-11T03:52:47.214Z,11.87
2023-05-11T03:53:47.208Z,11.89
2023-05-11T03:54:47.199Z,11.89
2023-05-11T03:55:47.183Z,11.90
2023-05-11T03:56:47.210Z,11.87
2023-05-11T03:57:47.183Z,11.93
2023-05-11T03:58:47.168Z,11.90
2023-05-11T03:59:47.149Z,11.93
2023-05-11T04:00:47.166Z,11.93
2023-05-11T04:01:47.129Z,11.94
2023-05-11T04:02:47.249Z,11.94
2023-05-11T04:03:47.251Z,11.93
2023-05-11T04:04:47.094Z,11.93
2023-05-11T04:05:47.110Z,11.94
2023-05-11T04:06:47.056Z,11.96
2023-05-11T04:07:47.056Z,11.97
2023-05-11T04:08:47.058Z,11.97
2023-05-11T04:09:47.039Z,11.96
2023-05-11T04:10:47.074Z,11.99
2023-05-11T04:11:47.020Z,11.99
2023-05-11T04:12:47.008Z,12.02
2023-05-11T04:13:47.008Z,12.02
2023-05-11T04:14:47.010Z,12.04
2023-05-11T04:15:47.038Z,12.04
2023-05-11T04:16:46.970Z,12.04
2023-05-11T04:17:47.031Z,12.05
2023-05-11T04:18:47.024Z,12.05
2023-05-11T04:19:47.010Z,12.05
2023-05-11T04:20:46.973Z,12.06
2023-05-11T04:21:46.911Z,12.06
2023-05-11T04:22:46.931Z,12.06
2023-05-11T04:23:47.025Z,12.08
2023-05-11T04:24:46.957Z,12.11
2023-05-11T04:25:46.897Z,12.08
2023-05-11T04:26:46.909Z,12.11
2023-05-11T04:27:46.881Z,12.11
2023-05-11T04:28:46.949Z,12.12
2023-05-11T04:29:46.859Z,12.13
2023-05-11T04:30:46.846Z,12.13
2023-05-11T04:31:46.894Z,12.12
2023-05-11T04:32:46.887Z,12.13
2023-05-11T04:33:46.873Z,12.13
2023-05-11T04:34:46.780Z,12.13
2023-05-11T04:35:46.761Z,12.13
2023-05-11T04:36:46.802Z,12.15
2023-05-11T04:37:46.736Z,12.16
2023-05-11T04:38:46.739Z,12.19
2023-05-11T04:39:46.722Z,12.19
2023-05-11T04:40:46.783Z,12.19
2023-05-11T04:41:46.715Z,12.21
2023-05-11T04:42:46.708Z,12.20
2023-05-11T04:43:46.708Z,12.21
2023-05-11T04:44:46.666Z,12.21
2023-05-11T04:45:46.685Z,12.21
2023-05-11T04:46:46.696Z,12.23
2023-05-11T04:47:46.753Z,12.24
2023-05-11T04:48:46.655Z,12.24
2023-05-11T04:49:46.630Z,12.21
2023-05-11T04:50:46.676Z,12.23
2023-05-11T04:51:46.609Z,12.23
2023-05-11T04:52:46.639Z,12.24
2023-05-11T04:53:46.647Z,12.26
2023-05-11T04:54:46.624Z,12.26
2023-05-11T04:55:46.638Z,12.24
2023-05-11T04:56:46.575Z,12.29
2023-05-11T04:57:46.568Z,12.30
2023-05-11T04:58:46.630Z,12.26
2023-05-11T04:59:46.556Z,12.30
2023-05-11T05:00:46.525Z,12.31
2023-05-11T05:01:46.528Z,12.30
2023-05-11T05:02:46.558Z,12.30
2023-05-11T05:03:46.550Z,12.33
2023-05-11T05:04:46.459Z,12.33
2023-05-11T05:05:46.459Z,12.34
2023-05-11T05:06:46.760Z,12.34
2023-05-11T05:07:46.441Z,12.34
2023-05-11T05:08:46.426Z,12.31
2023-05-11T05:09:46.404Z,12.31
2023-05-11T05:10:46.483Z,12.33
2023-05-11T05:11:46.421Z,12.33
2023-05-11T05:12:46.415Z,12.34
2023-05-11T05:13:46.383Z,12.38
2023-05-11T05:14:46.355Z,12.39
2023-05-11T05:15:46.411Z,12.38
2023-05-11T05:16:46.379Z,12.39
2023-05-11T05:17:46.405Z,12.41
2023-05-11T05:18:46.321Z,12.42
2023-05-11T05:19:46.321Z,12.42
2023-05-11T05:20:46.491Z,12.41
2023-05-11T05:21:46.291Z,12.41
2023-05-11T05:22:46.367Z,12.39
2023-05-11T05:23:46.257Z,12.41
2023-05-11T05:24:46.290Z,12.42
2023-05-11T05:25:46.260Z,12.45
2023-05-11T05:26:46.230Z,12.48
2023-05-11T05:27:46.226Z,12.51
2023-05-11T05:28:46.212Z,12.54
2023-05-11T05:29:46.229Z,12.56
2023-05-11T05:30:46.313Z,12.59
2023-05-11T05:31:46.201Z,12.60
2023-05-11T05:32:46.233Z,12.62
2023-05-11T05:33:46.155Z,12.64
2023-05-11T05:34:46.184Z,12.64
2023-05-11T05:35:46.143Z,12.63
2023-05-11T05:36:46.119Z,12.62
2023-05-11T05:37:46.110Z,12.60
2023-05-11T05:38:46.142Z,12.64
2023-05-11T05:39:48.338Z,12.66
2023-05-11T05:40:46.101Z,12.67
2023-05-11T05:41:46.070Z,12.70
2023-05-11T05:42:46.079Z,12.69
2023-05-11T05:43:46.080Z,12.66
2023-05-11T05:44:46.039Z,12.66
2023-05-11T05:45:46.031Z,12.67
2023-05-11T05:46:46.058Z,12.69
2023-05-11T05:47:46.085Z,12.71
2023-05-11T05:48:46.027Z,12.77
2023-05-11T05:49:45.990Z,12.79
2023-05-11T05:50:45.987Z,12.84
2023-05-11T05:51:46.000Z,12.87
2023-05-11T05:52:46.002Z,12.88
2023-05-11T05:53:45.995Z,12.89
2023-05-11T05:54:45.932Z,12.89
2023-05-11T05:55:45.932Z,12.95
2023-05-11T05:56:45.906Z,12.95
2023-05-11T05:57:45.945Z,12.97
2023-05-11T05:58:45.888Z,13.00
2023-05-11T05:59:45.883Z,12.99
2023-05-11T06:00:45.878Z,13.04
2023-05-11T06:01:45.855Z,13.11
2023-05-11T06:02:45.941Z,13.12
2023-05-11T06:03:46.026Z,13.17
2023-05-11T06:04:45.853Z,13.21
2023-05-11T06:05:45.817Z,13.22
2023-05-11T06:06:45.853Z,13.25
2023-05-11T06:07:54.361Z,13.27
2023-05-11T06:08:45.793Z,13.29
2023-05-11T06:09:45.775Z,13.27
2023-05-11T06:10:45.757Z,13.25
2023-05-11T06:11:45.760Z,13.21
2023-05-11T06:12:45.761Z,13.18
2023-05-11T06:13:45.738Z,13.18
2023-05-11T06:14:45.714Z,13.22
2023-05-11T06:15:45.725Z,13.29
2023-05-11T06:16:45.803Z,13.32
2023-05-11T06:17:45.700Z,13.36
2023-05-11T06:18:45.717Z,13.40
2023-05-11T06:19:45.665Z,13.41
2023-05-11T06:20:45.718Z,13.44
2023-05-11T06:21:45.706Z,13.49
2023-05-11T06:22:45.638Z,13.54
2023-05-11T06:23:45.631Z,13.58
2023-05-11T06:24:45.611Z,13.62
2023-05-11T06:25:45.605Z,13.70
2023-05-11T06:26:45.626Z,13.74
2023-05-11T06:27:45.584Z,13.80
2023-05-11T06:28:45.565Z,13.84
2023-05-11T06:29:45.565Z,13.84
2023-05-11T06:33:53.866Z,13.89
2023-05-11T06:34:54.808Z,13.91
2023-05-11T06:35:54.881Z,13.88
2023-05-11T06:38:32.634Z,13.73
2023-05-11T06:39:54.998Z,13.67
2023-05-11T06:40:32.690Z,13.69
2023-05-11T06:41:38.298Z,13.71
2023-05-11T06:42:32.556Z,13.76
2023-05-11T06:47:26.952Z,13.80
2023-05-11T06:47:50.529Z,13.76
2023-05-11T06:49:48.745Z,13.77
2023-05-11T06:50:49.794Z,13.80
2023-05-11T06:51:49.672Z,13.83
2023-05-11T06:52:49.602Z,13.87
2023-05-11T06:53:49.640Z,13.88
2023-05-11T06:54:49.570Z,13.91
2023-05-11T06:55:49.579Z,13.94
2023-05-11T06:56:49.568Z,13.96
2023-05-11T06:57:49.700Z,13.92
2023-05-11T06:58:49.583Z,13.94
2023-05-11T06:59:49.572Z,13.98
2023-05-11T07:00:49.565Z,14.01
2023-05-11T07:01:49.539Z,14.01
2023-05-11T07:02:49.575Z,14.06
2023-05-11T07:03:50.412Z,14.07
2023-05-11T07:04:49.490Z,14.10
2023-05-11T07:05:49.494Z,14.07
2023-05-11T07:06:49.450Z,14.06
2023-05-11T07:07:49.479Z,14.09
2023-05-11T07:08:49.478Z,14.14
2023-05-11T07:09:49.432Z,14.16
2023-05-11T07:10:49.415Z,14.14
2023-05-11T07:11:49.402Z,14.16
2023-05-11T07:12:49.420Z,14.20
2023-05-11T07:13:49.393Z,14.20
2023-05-11T07:14:49.396Z,14.14
2023-05-11T07:15:49.350Z,14.07
2023-05-11T07:16:49.402Z,13.98
2023-05-11T07:17:49.502Z,13.95
2023-05-11T07:18:49.438Z,13.96
2023-05-11T07:19:49.333Z,13.98
2023-05-11T07:20:49.305Z,14.02
2023-05-11T07:21:49.339Z,14.07
2023-05-11T07:22:49.304Z,14.09
2023-05-11T07:23:49.325Z,14.13
2023-05-11T07:24:49.296Z,14.19
2023-05-11T07:25:49.276Z,14.24
2023-05-11T07:26:49.303Z,14.25
2023-05-11T07:27:49.254Z,14.29
2023-05-11T07:28:49.271Z,14.32
2023-05-11T07:29:49.239Z,14.37
2023-05-11T07:30:49.333Z,14.35
2023-05-11T07:31:49.363Z,14.34
2023-05-11T07:32:49.242Z,14.32
2023-05-11T07:33:49.274Z,14.31
2023-05-11T07:34:49.156Z,14.27
2023-05-11T07:35:49.160Z,14.27
2023-05-11T07:36:49.129Z,14.25
2023-05-11T07:37:49.174Z,14.28
2023-05-11T07:38:49.128Z,14.28
2023-05-11T07:39:49.129Z,14.28
2023-05-11T07:40:49.098Z,14.29
2023-05-11T07:41:49.090Z,14.29
2023-05-11T07:42:49.111Z,14.29
2023-05-11T07:43:49.080Z,14.27
2023-05-11T07:44:49.047Z,14.29
2023-05-11T07:45:49.068Z,14.31
2023-05-11T07:46:49.109Z,14.29
2023-05-11T07:47:49.072Z,14.24
2023-05-11T07:48:51.629Z,14.17
2023-05-11T07:49:49.054Z,14.17
2023-05-11T07:50:49.066Z,14.20
2023-05-11T07:51:49.025Z,14.24
2023-05-11T07:52:49.445Z,14.27
2023-05-11T07:53:48.978Z,14.29
2023-05-11T07:54:49.032Z,14.21
2023-05-11T07:55:49.049Z,14.25
2023-05-11T07:56:48.957Z,14.20
2023-05-11T07:57:48.930Z,14.19
2023-05-11T07:58:48.956Z,14.19
2023-05-11T07:59:48.945Z,14.21
2023-05-11T08:00:48.902Z,14.20
2023-05-11T08:01:48.976Z,14.19
2023-05-11T08:02:48.974Z,14.25
2023-05-11T08:03:48.908Z,14.28
2023-05-11T08:04:48.892Z,14.29
2023-05-11T08:05:48.901Z,14.29
2023-05-11T08:06:48.825Z,14.31
2023-05-11T08:07:48.853Z,14.34
2023-05-11T08:08:48.908Z,14.35
2023-05-11T08:09:48.814Z,14.37
2023-05-11T08:10:48.796Z,14.32
2023-05-11T08:11:48.781Z,14.34
2023-05-11T08:12:48.770Z,14.34
2023-05-11T08:13:48.870Z,14.35
2023-05-11T08:14:48.728Z,14.38
2023-05-11T08:15:48.772Z,14.39
2023-05-11T08:16:48.870Z,14.38
2023-05-11T08:17:48.848Z,14.39
2023-05-11T08:18:48.760Z,14.35
2023-05-11T08:19:48.691Z,14.34
2023-05-11T08:20:48.705Z,14.34
2023-05-11T08:21:48.709Z,14.34
2023-05-11T08:22:48.659Z,14.31
2023-05-11T08:23:48.667Z,14.28
2023-05-11T08:24:48.631Z,14.29
2023-05-11T08:25:48.654Z,14.28
2023-05-11T08:26:48.614Z,14.28
2023-05-11T08:27:48.648Z,14.28
2023-05-11T08:28:48.621Z,14.29
2023-05-11T08:29:48.601Z,14.31
2023-05-11T08:30:48.615Z,14.35
2023-05-11T08:31:48.666Z,14.34
2023-05-11T08:32:57.847Z,14.35
2023-05-11T08:33:48.648Z,14.32
2023-05-11T08:34:48.623Z,14.38
2023-05-11T08:35:48.531Z,14.43
2023-05-11T08:36:48.548Z,14.43
2023-05-11T08:37:48.529Z,14.47
2023-05-11T08:38:48.528Z,14.49
2023-05-11T08:39:48.499Z,14.50
2023-05-11T08:40:48.507Z,14.52
2023-05-11T08:41:48.555Z,14.54
2023-05-11T08:42:48.467Z,14.60
2023-05-11T08:43:48.470Z,14.65
2023-05-11T08:44:48.443Z,14.69
2023-05-11T08:45:48.480Z,14.71
2023-05-11T08:46:48.414Z,14.67
2023-05-11T08:47:48.441Z,14.71
2023-05-11T08:48:48.428Z,14.72
2023-05-11T08:49:48.472Z,14.72
2023-05-11T08:50:48.410Z,14.75
2023-05-11T08:51:48.361Z,14.80
2023-05-11T08:52:48.356Z,14.78
2023-05-11T08:53:48.369Z,14.83
2023-05-11T08:54:48.372Z,14.80
2023-05-11T08:55:48.352Z,14.83
2023-05-11T08:56:48.296Z,14.87
2023-05-11T08:57:48.295Z,14.88
2023-05-11T08:58:48.276Z,14.87
2023-05-11T08:59:48.316Z,14.88
2023-05-11T09:00:48.286Z,14.91
2023-05-11T09:01:48.318Z,15.01
2023-05-11T09:02:48.263Z,15.03
2023-05-11T09:03:48.256Z,15.06
2023-05-11T09:04:49.104Z,15.08
2023-05-11T09:05:48.351Z,15.11
2023-05-11T09:06:48.186Z,15.21
2023-05-11T09:07:48.225Z,15.30
2023-05-11T09:08:48.196Z,15.33
2023-05-11T09:09:48.191Z,15.38
2023-05-11T09:10:48.157Z,15.43
2023-05-11T09:11:48.178Z,15.49
2023-05-11T09:12:48.130Z,15.54
2023-05-11T09:13:48.171Z,15.57
2023-05-11T09:14:48.141Z,15.59
2023-05-11T09:15:48.165Z,15.61
2023-05-11T09:16:48.185Z,15.64
2023-05-11T09:17:48.167Z,15.70
2023-05-11T09:18:48.109Z,15.74
2023-05-11T09:19:48.087Z,15.74
2023-05-11T09:20:48.039Z,15.81
2023-05-11T09:21:48.046Z,15.74
2023-05-11T09:22:48.034Z,15.74
2023-05-11T09:23:48.115Z,15.74
2023-05-11T09:24:47.995Z,15.68
2023-05-11T09:25:48.015Z,15.68
2023-05-11T09:26:47.964Z,15.67
2023-05-11T09:27:48.044Z,15.68
2023-05-11T09:29:51.906Z,15.72
2023-05-11T09:30:47.968Z,15.75
2023-05-11T09:31:47.949Z,15.78
2023-05-11T09:32:48.004Z,15.79
2023-05-11T09:33:47.921Z,15.82
2023-05-11T09:34:47.891Z,15.85
2023-05-11T09:35:47.898Z,15.88
2023-05-11T09:36:47.879Z,15.94
2023-05-11T09:37:47.918Z,16.00
2023-05-11T09:38:47.930Z,16.01
2023-05-11T09:40:47.825Z,16.00
2023-05-11T09:41:47.881Z,15.99
2023-05-11T09:42:47.848Z,15.93
2023-05-11T09:43:47.841Z,15.88
2023-05-11T09:44:47.824Z,15.92
2023-05-11T09:45:47.812Z,15.88
2023-05-11T09:46:47.961Z,15.96
2023-05-11T09:47:49.127Z,16.01
2023-05-11T09:48:47.759Z,16.06
2023-05-11T09:49:47.848Z,16.14
2023-05-11T09:50:47.776Z,16.16
2023-05-11T09:51:47.769Z,16.16
2023-05-11T09:52:47.733Z,16.18
2023-05-11T09:53:47.702Z,16.25
2023-05-11T09:54:47.693Z,16.37
2023-05-11T09:55:47.722Z,16.45
2023-05-11T09:56:47.693Z,16.42
2023-05-11T09:57:47.660Z,16.40
2023-05-11T09:58:47.711Z,16.42
2023-05-11T09:59:47.671Z,16.45
2023-05-11T10:00:47.654Z,16.53
2023-05-11T10:01:47.639Z,16.55
2023-05-11T10:02:47.628Z,16.53
2023-05-11T10:03:47.668Z,16.53
2023-05-11T10:04:47.590Z,16.60
2023-05-11T10:05:47.629Z,16.65
2023-05-11T10:06:47.568Z,16.67
2023-05-11T10:07:47.575Z,16.68
2023-05-11T10:08:47.570Z,16.71
2023-05-11T10:09:47.608Z,16.71
2023-05-11T10:10:47.549Z,16.65
2023-05-11T10:11:47.596Z,16.60
2023-05-11T10:12:47.501Z,16.58
2023-05-11T10:13:47.520Z,16.52
2023-05-11T10:14:47.500Z,16.49
2023-05-11T10:15:47.509Z,16.42
2023-05-11T10:16:47.474Z,16.42
2023-05-11T10:17:47.479Z,16.44
2023-05-11T10:18:47.494Z,16.48
2023-05-11T10:19:47.474Z,16.49
2023-05-11T10:20:47.421Z,16.53
2023-05-11T10:21:47.429Z,16.52
2023-05-11T10:22:47.411Z,16.52
2023-05-11T10:23:47.505Z,16.48
2023-05-11T10:24:47.398Z,16.41
2023-05-11T10:25:47.382Z,16.38
2023-05-11T10:26:47.383Z,16.41
2023-05-11T10:27:47.343Z,16.38
2023-05-11T10:28:47.386Z,16.38
2023-05-11T10:29:47.356Z,16.38
2023-05-11T10:30:47.322Z,16.37
2023-05-11T10:31:47.363Z,16.35
2023-05-11T10:32:47.369Z,16.34
2023-05-11T10:33:49.138Z,16.31
2023-05-11T10:34:47.288Z,16.25
2023-05-11T10:35:47.301Z,16.20
2023-05-11T10:36:47.256Z,16.16
2023-05-11T10:37:47.239Z,16.15
2023-05-11T10:38:47.280Z,16.16
2023-05-11T10:39:49.348Z,16.20
2023-05-11T10:40:47.214Z,16.22
2023-05-11T10:41:47.195Z,16.23
2023-05-11T10:42:47.224Z,16.26
2023-05-11T10:43:47.199Z,16.25
2023-05-11T10:44:47.186Z,16.16
2023-05-11T10:45:47.254Z,16.14
2023-05-11T10:46:47.147Z,16.14
2023-05-11T10:47:47.211Z,16.06
2023-05-11T10:48:47.155Z,15.94
2023-05-11T10:49:47.095Z,15.81
2023-05-11T10:50:47.100Z,15.75
2023-05-11T10:51:47.094Z,15.68
2023-05-11T10:52:47.132Z,15.63
2023-05-11T10:53:47.083Z,15.57
2023-05-11T10:54:47.079Z,15.54
2023-05-11T10:55:47.280Z,15.54
2023-05-11T10:56:47.061Z,15.49
2023-05-11T10:57:47.068Z,15.41
2023-05-11T10:58:47.030Z,15.24
2023-05-11T10:59:47.012Z,15.09
2023-05-11T11:00:47.063Z,15.01
2023-05-11T11:01:47.078Z,14.91
2023-05-11T11:02:46.988Z,14.83
2023-05-11T11:03:46.965Z,14.80
2023-05-11T11:04:46.940Z,14.71
2023-05-11T11:05:46.924Z,14.68
2023-05-11T11:06:46.949Z,14.65
2023-05-11T11:07:46.908Z,14.65
2023-05-11T11:08:46.932Z,14.60
2023-05-11T11:09:47.143Z,14.61
2023-05-11T11:10:47.124Z,14.65
2023-05-11T11:11:47.069Z,14.67
2023-05-11T11:12:46.946Z,14.68
2023-05-11T11:13:47.003Z,14.72
2023-05-11T11:14:46.937Z,14.80
2023-05-11T11:15:46.968Z,14.86
2023-05-11T11:16:46.979Z,14.91
2023-05-11T11:17:46.954Z,15.01
2023-05-11T11:18:47.023Z,15.06
2023-05-11T11:19:46.936Z,15.11
2023-05-11T11:20:46.856Z,15.17
2023-05-11T11:21:46.783Z,15.24
2023-05-11T11:22:46.760Z,15.28
2023-05-11T11:23:46.756Z,15.27
2023-05-11T11:24:46.878Z,15.35
2023-05-11T11:25:46.753Z,15.42
2023-05-11T11:26:46.707Z,15.49
2023-05-11T11:27:46.701Z,15.59
2023-05-11T11:28:46.703Z,15.64
2023-05-11T11:29:46.706Z,15.67
2023-05-11T11:30:46.700Z,15.72
2023-05-11T11:31:46.736Z,15.75
2023-05-11T11:32:46.724Z,15.75
2023-05-11T11:33:46.723Z,15.76
2023-05-11T11:34:46.665Z,15.81
2023-05-11T11:35:46.613Z,15.88
2023-05-11T11:36:46.665Z,15.93
2023-05-11T11:37:46.605Z,15.97
2023-05-11T11:38:46.594Z,16.03
2023-05-11T11:39:46.576Z,16.04
2023-05-11T11:40:51.075Z,16.03
2023-05-11T11:41:46.577Z,16.03
2023-05-11T11:42:46.557Z,16.07
2023-05-11T11:43:46.548Z,16.15
2023-05-11T11:44:46.513Z,16.27
2023-05-11T11:45:46.509Z,16.35
2023-05-11T11:46:46.590Z,16.44
2023-05-11T11:47:46.543Z,16.48
2023-05-11T11:48:46.494Z,16.53
2023-05-11T11:49:46.466Z,16.55
2023-05-11T11:50:46.461Z,16.52
2023-05-11T11:51:46.452Z,16.49
2023-05-11T11:52:46.463Z,16.48
2023-05-11T11:53:46.422Z,16.52
2023-05-11T11:54:46.428Z,16.45
2023-05-11T11:55:46.422Z,16.50
2023-05-11T11:56:46.388Z,16.55
2023-05-11T11:57:46.396Z,16.59
2023-05-11T11:58:46.373Z,16.63
2023-05-11T11:59:46.358Z,16.67
2023-05-11T12:00:46.345Z,16.73
2023-05-11T12:01:46.685Z,16.78
2023-05-11T12:02:46.411Z,16.77
2023-05-11T12:03:46.490Z,16.74
2023-05-11T12:04:46.390Z,16.63
2023-05-11T12:05:46.291Z,16.58
2023-05-11T12:06:46.313Z,16.52
2023-05-11T12:07:46.292Z,16.45
2023-05-11T12:08:46.272Z,16.34
2023-05-11T12:09:46.287Z,16.18
2023-05-11T12:10:46.248Z,16.09
2023-05-11T12:11:46.255Z,16.04
2023-05-11T12:12:46.226Z,15.99
2023-05-11T12:13:46.203Z,15.97
2023-05-11T12:14:46.205Z,15.94
2023-05-11T12:15:46.225Z,15.96
2023-05-11T12:16:46.350Z,16.00
2023-05-11T12:17:46.218Z,16.01
2023-05-11T12:18:46.199Z,16.03
2023-05-11T12:19:46.145Z,16.07
2023-05-11T12:20:46.181Z,16.09
2023-05-11T12:21:46.187Z,16.06
2023-05-11T12:22:46.140Z,16.03
2023-05-11T12:23:46.102Z,15.88
2023-05-11T12:24:46.076Z,15.79
2023-05-11T12:25:46.136Z,15.67
2023-05-11T12:26:46.161Z,15.60
2023-05-11T12:27:46.051Z,15.48
2023-05-11T12:28:46.074Z,15.41
2023-05-11T12:29:46.043Z,15.41
2023-05-11T12:30:46.061Z,15.28
2023-05-11T12:31:54.221Z,15.11
2023-05-11T12:32:46.041Z,15.08
2023-05-11T12:33:45.996Z,15.02
2023-05-11T12:34:46.006Z,15.02
2023-05-11T12:35:45.997Z,15.03
2023-05-11T12:36:45.977Z,15.01
2023-05-11T12:37:45.955Z,14.98
2023-05-11T12:38:45.928Z,14.95
2023-05-11T12:39:45.930Z,14.93
2023-05-11T12:40:45.961Z,14.94
2023-05-11T12:41:45.925Z,14.93
2023-05-11T12:42:45.901Z,14.90
2023-05-11T12:43:45.880Z,14.86
2023-05-11T12:44:45.951Z,14.81
2023-05-11T12:45:45.856Z,14.75
2023-05-11T12:46:45.914Z,14.78
2023-05-11T12:47:45.886Z,14.81
2023-05-11T12:48:45.862Z,14.88
2023-05-11T12:49:45.860Z,14.93
2023-05-11T12:50:45.801Z,14.99
2023-05-11T12:51:45.787Z,15.05
2023-05-11T12:52:45.786Z,15.06
2023-05-11T12:53:45.773Z,15.06
2023-05-11T12:54:45.793Z,15.08
2023-05-11T12:55:45.797Z,15.03
2023-05-11T12:56:45.748Z,15.05
2023-05-11T12:57:45.995Z,15.06
2023-05-11T12:58:45.760Z,15.09
2023-05-11T12:59:45.704Z,15.09
2023-05-11T13:00:45.702Z,15.11
2023-05-11T13:01:45.750Z,15.09
2023-05-11T13:02:45.821Z,15.08
2023-05-11T13:03:45.862Z,15.03